sensor_id;sensor_type;location;lat;lon;timestamp;P1;durP1;ratioP1;P2;durP2;ratioP2
61435;SDS011;47304;47.456;19.160;2022-11-20T00:01:18;13.30;;;5.70;;
61435;SDS011;47304;47.456;19.160;2022-11-20T00:03:48;14.20;;;6.00;;
61435;SDS011;47304;47.456;19.160;2022-11-20T00:06:17;16.30;;;7.00;;
61435;SDS011;47304;47.456;19.160;2022-11-20T00:08:46;14.90;;;6.10;;
61435;SDS011;47304;47.456;19.160;2022-11-20T00:11:16;16.30;;;6.60;;
61435;SDS011;47304;47.456;19.160;2022-11-20T00:13:50;14.00;;;6.00;;
61435;SDS011;47304;47.456;19.160;2022-11-20T00:16:20;16.10;;;7.30;;
61435;SDS011;47304;47.456;19.160;2022-11-20T00:18:50;14.60;;;6.60;;
61435;SDS011;47304;47.456;19.160;2022-11-20T00:21:19;16.40;;;7.60;;
61435;SDS011;47304;47.456;19.160;2022-11-20T00:23:56;15.90;;;6.80;;
61435;SDS011;47304;47.456;19.160;2022-11-20T00:26:44;17.30;;;7.80;;
61435;SDS011;47304;47.456;19.160;2022-11-20T00:29:13;16.20;;;6.60;;
61435;SDS011;47304;47.456;19.160;2022-11-20T00:31:41;15.20;;;6.70;;
61435;SDS011;47304;47.456;19.160;2022-11-20T00:34:09;17.30;;;7.00;;
61435;SDS011;47304;47.456;19.160;2022-11-20T00:36:36;18.00;;;7.30;;
61435;SDS011;47304;47.456;19.160;2022-11-20T00:39:04;16.20;;;6.80;;
61435;SDS011;47304;47.456;19.160;2022-11-20T00:41:32;15.80;;;7.00;;
61435;SDS011;47304;47.456;19.160;2022-11-20T00:44:00;16.90;;;6.60;;
61435;SDS011;47304;47.456;19.160;2022-11-20T00:46:28;16.40;;;6.60;;
61435;SDS011;47304;47.456;19.160;2022-11-20T00:48:58;20.40;;;7.90;;
61435;SDS011;47304;47.456;19.160;2022-11-20T00:51:26;18.80;;;8.30;;
61435;SDS011;47304;47.456;19.160;2022-11-20T00:53:55;18.90;;;7.70;;
61435;SDS011;47304;47.456;19.160;2022-11-20T00:56:24;19.60;;;8.50;;
61435;SDS011;47304;47.456;19.160;2022-11-20T00:58:52;17.30;;;7.70;;
61435;SDS011;47304;47.456;19.160;2022-11-20T01:01:20;16.00;;;6.80;;
61435;SDS011;47304;47.456;19.160;2022-11-20T01:03:50;21.70;;;8.70;;
61435;SDS011;47304;47.456;19.160;2022-11-20T01:06:41;17.50;;;7.50;;
61435;SDS011;47304;47.456;19.160;2022-11-20T01:09:11;17.10;;;7.40;;
61435;SDS011;47304;47.456;19.160;2022-11-20T01:11:41;15.90;;;7.10;;
61435;SDS011;47304;47.456;19.160;2022-11-20T01:14:12;17.80;;;7.60;;
61435;SDS011;47304;47.456;19.160;2022-11-20T01:16:48;21.70;;;9.20;;
61435;SDS011;47304;47.456;19.160;2022-11-20T01:19:19;16.20;;;6.00;;
61435;SDS011;47304;47.456;19.160;2022-11-20T01:21:49;18.70;;;8.40;;
61435;SDS011;47304;47.456;19.160;2022-11-20T01:24:19;14.80;;;6.90;;
61435;SDS011;47304;47.456;19.160;2022-11-20T01:26:49;21.30;;;8.90;;
61435;SDS011;47304;47.456;19.160;2022-11-20T01:29:19;19.00;;;8.50;;
61435;SDS011;47304;47.456;19.160;2022-11-20T01:34:18;20.50;;;8.50;;
61435;SDS011;47304;47.456;19.160;2022-11-20T01:36:46;18.90;;;7.80;;
61435;SDS011;47304;47.456;19.160;2022-11-20T01:39:19;23.20;;;9.00;;
61435;SDS011;47304;47.456;19.160;2022-11-20T01:41:49;22.30;;;9.10;;
61435;SDS011;47304;47.456;19.160;2022-11-20T01:44:20;22.20;;;8.90;;
61435;SDS011;47304;47.456;19.160;2022-11-20T01:46:57;27.40;;;10.80;;
61435;SDS011;47304;47.456;19.160;2022-11-20T01:49:31;17.20;;;7.30;;
61435;SDS011;47304;47.456;19.160;2022-11-20T01:52:06;26.10;;;10.50;;
61435;SDS011;47304;47.456;19.160;2022-11-20T01:54:40;22.60;;;9.40;;
61435;SDS011;47304;47.456;19.160;2022-11-20T01:57:13;21.90;;;9.20;;
61435;SDS011;47304;47.456;19.160;2022-11-20T01:59:54;22.40;;;8.50;;
61435;SDS011;47304;47.456;19.160;2022-11-20T02:02:27;23.40;;;10.70;;
61435;SDS011;47304;47.456;19.160;2022-11-20T02:04:56;23.70;;;10.40;;
61435;SDS011;47304;47.456;19.160;2022-11-20T02:07:30;24.20;;;10.90;;
61435;SDS011;47304;47.456;19.160;2022-11-20T02:09:58;21.70;;;9.30;;
61435;SDS011;47304;47.456;19.160;2022-11-20T02:12:26;20.90;;;8.50;;
61435;SDS011;47304;47.456;19.160;2022-11-20T02:14:53;19.90;;;8.60;;
61435;SDS011;47304;47.456;19.160;2022-11-20T02:17:21;21.10;;;9.90;;
61435;SDS011;47304;47.456;19.160;2022-11-20T02:19:49;20.70;;;9.50;;
61435;SDS011;47304;47.456;19.160;2022-11-20T02:22:21;24.30;;;9.90;;
61435;SDS011;47304;47.456;19.160;2022-11-20T02:24:56;23.50;;;10.30;;
61435;SDS011;47304;47.456;19.160;2022-11-20T02:27:26;25.70;;;10.40;;
61435;SDS011;47304;47.456;19.160;2022-11-20T02:29:59;24.50;;;9.30;;
61435;SDS011;47304;47.456;19.160;2022-11-20T02:32:31;27.40;;;9.90;;
61435;SDS011;47304;47.456;19.160;2022-11-20T02:37:48;26.70;;;10.90;;
61435;SDS011;47304;47.456;19.160;2022-11-20T02:40:18;18.80;;;8.00;;
61435;SDS011;47304;47.456;19.160;2022-11-20T02:42:46;25.10;;;11.20;;
61435;SDS011;47304;47.456;19.160;2022-11-20T02:45:14;31.50;;;11.50;;
61435;SDS011;47304;47.456;19.160;2022-11-20T02:47:41;23.40;;;9.30;;
61435;SDS011;47304;47.456;19.160;2022-11-20T02:50:09;22.50;;;10.00;;
61435;SDS011;47304;47.456;19.160;2022-11-20T02:52:37;23.10;;;9.90;;
61435;SDS011;47304;47.456;19.160;2022-11-20T02:55:05;23.90;;;9.70;;
61435;SDS011;47304;47.456;19.160;2022-11-20T02:57:33;22.90;;;10.10;;
61435;SDS011;47304;47.456;19.160;2022-11-20T03:00:02;24.70;;;9.70;;
61435;SDS011;47304;47.456;19.160;2022-11-20T03:02:30;27.60;;;10.20;;
61435;SDS011;47304;47.456;19.160;2022-11-20T03:05:01;22.30;;;9.90;;
61435;SDS011;47304;47.456;19.160;2022-11-20T03:07:28;24.30;;;10.90;;
61435;SDS011;47304;47.456;19.160;2022-11-20T03:09:56;25.70;;;11.80;;
61435;SDS011;47304;47.456;19.160;2022-11-20T03:12:24;23.30;;;9.80;;
61435;SDS011;47304;47.456;19.160;2022-11-20T03:14:51;23.40;;;9.90;;
61435;SDS011;47304;47.456;19.160;2022-11-20T03:17:19;26.50;;;11.30;;
61435;SDS011;47304;47.456;19.160;2022-11-20T03:19:47;26.70;;;10.70;;
61435;SDS011;47304;47.456;19.160;2022-11-20T03:22:15;25.30;;;10.60;;
61435;SDS011;47304;47.456;19.160;2022-11-20T03:24:42;23.60;;;10.50;;
61435;SDS011;47304;47.456;19.160;2022-11-20T03:27:10;21.50;;;9.60;;
61435;SDS011;47304;47.456;19.160;2022-11-20T03:29:37;22.90;;;9.90;;
61435;SDS011;47304;47.456;19.160;2022-11-20T03:32:05;26.40;;;11.10;;
61435;SDS011;47304;47.456;19.160;2022-11-20T03:34:33;24.50;;;11.10;;
61435;SDS011;47304;47.456;19.160;2022-11-20T03:37:00;23.20;;;10.70;;
61435;SDS011;47304;47.456;19.160;2022-11-20T03:39:28;23.90;;;10.70;;
61435;SDS011;47304;47.456;19.160;2022-11-20T03:41:56;23.60;;;10.60;;
61435;SDS011;47304;47.456;19.160;2022-11-20T03:44:23;25.80;;;10.60;;
61435;SDS011;47304;47.456;19.160;2022-11-20T03:46:51;21.20;;;9.10;;
61435;SDS011;47304;47.456;19.160;2022-11-20T03:49:19;23.00;;;9.20;;
61435;SDS011;47304;47.456;19.160;2022-11-20T03:51:47;26.20;;;10.90;;
61435;SDS011;47304;47.456;19.160;2022-11-20T03:54:15;21.50;;;9.80;;
61435;SDS011;47304;47.456;19.160;2022-11-20T03:56:42;24.20;;;11.20;;
61435;SDS011;47304;47.456;19.160;2022-11-20T03:59:10;20.70;;;9.90;;
61435;SDS011;47304;47.456;19.160;2022-11-20T04:01:38;20.70;;;9.00;;
61435;SDS011;47304;47.456;19.160;2022-11-20T04:04:05;21.40;;;8.60;;
61435;SDS011;47304;47.456;19.160;2022-11-20T04:06:34;20.80;;;9.00;;
61435;SDS011;47304;47.456;19.160;2022-11-20T04:09:03;23.20;;;10.40;;
61435;SDS011;47304;47.456;19.160;2022-11-20T04:11:33;22.40;;;9.30;;
61435;SDS011;47304;47.456;19.160;2022-11-20T04:14:06;25.90;;;11.60;;
61435;SDS011;47304;47.456;19.160;2022-11-20T04:16:39;20.30;;;8.40;;
61435;SDS011;47304;47.456;19.160;2022-11-20T04:19:09;25.40;;;11.10;;
61435;SDS011;47304;47.456;19.160;2022-11-20T04:21:39;21.30;;;9.60;;
61435;SDS011;47304;47.456;19.160;2022-11-20T04:24:06;21.80;;;10.00;;
61435;SDS011;47304;47.456;19.160;2022-11-20T04:26:34;18.80;;;9.00;;
61435;SDS011;47304;47.456;19.160;2022-11-20T04:29:02;20.30;;;9.10;;
61435;SDS011;47304;47.456;19.160;2022-11-20T04:31:31;21.90;;;10.10;;
61435;SDS011;47304;47.456;19.160;2022-11-20T04:34:01;24.40;;;10.20;;
61435;SDS011;47304;47.456;19.160;2022-11-20T04:36:31;22.10;;;9.40;;
61435;SDS011;47304;47.456;19.160;2022-11-20T04:38:59;21.10;;;10.70;;
61435;SDS011;47304;47.456;19.160;2022-11-20T04:41:30;21.90;;;10.20;;
61435;SDS011;47304;47.456;19.160;2022-11-20T04:44:03;24.90;;;11.30;;
61435;SDS011;47304;47.456;19.160;2022-11-20T04:46:36;19.40;;;9.00;;
61435;SDS011;47304;47.456;19.160;2022-11-20T04:49:06;21.30;;;8.70;;
61435;SDS011;47304;47.456;19.160;2022-11-20T04:51:35;26.60;;;10.60;;
61435;SDS011;47304;47.456;19.160;2022-11-20T04:54:03;19.70;;;7.30;;
61435;SDS011;47304;47.456;19.160;2022-11-20T04:56:30;22.70;;;9.50;;
61435;SDS011;47304;47.456;19.160;2022-11-20T04:59:01;24.70;;;11.50;;
61435;SDS011;47304;47.456;19.160;2022-11-20T05:01:32;24.80;;;10.70;;
61435;SDS011;47304;47.456;19.160;2022-11-20T05:03:59;25.30;;;11.50;;
61435;SDS011;47304;47.456;19.160;2022-11-20T05:06:27;23.20;;;10.50;;
61435;SDS011;47304;47.456;19.160;2022-11-20T05:08:55;23.20;;;10.40;;
61435;SDS011;47304;47.456;19.160;2022-11-20T05:11:22;21.40;;;10.50;;
61435;SDS011;47304;47.456;19.160;2022-11-20T05:13:51;25.40;;;11.00;;
61435;SDS011;47304;47.456;19.160;2022-11-20T05:16:20;24.00;;;10.60;;
61435;SDS011;47304;47.456;19.160;2022-11-20T05:18:51;21.20;;;8.90;;
61435;SDS011;47304;47.456;19.160;2022-11-20T05:21:21;19.20;;;8.60;;
61435;SDS011;47304;47.456;19.160;2022-11-20T05:23:49;22.50;;;10.30;;
61435;SDS011;47304;47.456;19.160;2022-11-20T05:26:18;23.40;;;10.00;;
61435;SDS011;47304;47.456;19.160;2022-11-20T05:28:49;26.40;;;11.40;;
61435;SDS011;47304;47.456;19.160;2022-11-20T05:31:18;16.00;;;7.20;;
61435;SDS011;47304;47.456;19.160;2022-11-20T05:33:55;20.90;;;9.00;;
61435;SDS011;47304;47.456;19.160;2022-11-20T05:36:24;25.70;;;10.60;;
61435;SDS011;47304;47.456;19.160;2022-11-20T05:38:52;20.40;;;9.20;;
61435;SDS011;47304;47.456;19.160;2022-11-20T05:41:27;24.70;;;11.20;;
61435;SDS011;47304;47.456;19.160;2022-11-20T05:43:55;22.60;;;9.20;;
61435;SDS011;47304;47.456;19.160;2022-11-20T05:46:23;25.00;;;10.90;;
61435;SDS011;47304;47.456;19.160;2022-11-20T05:48:55;23.00;;;9.80;;
61435;SDS011;47304;47.456;19.160;2022-11-20T05:51:24;20.30;;;9.10;;
61435;SDS011;47304;47.456;19.160;2022-11-20T05:53:53;26.10;;;12.20;;
61435;SDS011;47304;47.456;19.160;2022-11-20T05:56:21;22.10;;;9.70;;
61435;SDS011;47304;47.456;19.160;2022-11-20T05:58:49;20.90;;;9.20;;
61435;SDS011;47304;47.456;19.160;2022-11-20T06:01:21;23.20;;;10.70;;
61435;SDS011;47304;47.456;19.160;2022-11-20T06:03:52;22.00;;;9.80;;
61435;SDS011;47304;47.456;19.160;2022-11-20T06:06:21;19.30;;;8.10;;
61435;SDS011;47304;47.456;19.160;2022-11-20T06:08:49;23.80;;;11.40;;
61435;SDS011;47304;47.456;19.160;2022-11-20T06:11:17;23.40;;;10.20;;
61435;SDS011;47304;47.456;19.160;2022-11-20T06:13:45;25.30;;;10.30;;
61435;SDS011;47304;47.456;19.160;2022-11-20T06:16:14;22.00;;;10.10;;
61435;SDS011;47304;47.456;19.160;2022-11-20T06:18:43;23.00;;;10.60;;
61435;SDS011;47304;47.456;19.160;2022-11-20T06:21:13;25.40;;;10.90;;
61435;SDS011;47304;47.456;19.160;2022-11-20T06:23:43;18.90;;;8.00;;
61435;SDS011;47304;47.456;19.160;2022-11-20T06:26:13;23.80;;;11.30;;
61435;SDS011;47304;47.456;19.160;2022-11-20T06:28:45;23.10;;;10.80;;
61435;SDS011;47304;47.456;19.160;2022-11-20T06:31:13;24.70;;;11.40;;
61435;SDS011;47304;47.456;19.160;2022-11-20T06:33:43;22.70;;;10.30;;
61435;SDS011;47304;47.456;19.160;2022-11-20T06:36:11;27.50;;;10.50;;
61435;SDS011;47304;47.456;19.160;2022-11-20T06:38:40;17.40;;;9.20;;
61435;SDS011;47304;47.456;19.160;2022-11-20T06:41:13;23.20;;;9.80;;
61435;SDS011;47304;47.456;19.160;2022-11-20T06:43:42;24.20;;;10.80;;
61435;SDS011;47304;47.456;19.160;2022-11-20T06:46:11;22.40;;;10.30;;
61435;SDS011;47304;47.456;19.160;2022-11-20T06:48:40;24.10;;;10.60;;
61435;SDS011;47304;47.456;19.160;2022-11-20T06:51:08;19.60;;;9.30;;
61435;SDS011;47304;47.456;19.160;2022-11-20T06:53:36;22.60;;;10.20;;
61435;SDS011;47304;47.456;19.160;2022-11-20T06:56:04;21.80;;;10.40;;
61435;SDS011;47304;47.456;19.160;2022-11-20T06:58:33;27.50;;;11.90;;
61435;SDS011;47304;47.456;19.160;2022-11-20T07:01:04;22.80;;;10.20;;
61435;SDS011;47304;47.456;19.160;2022-11-20T07:03:33;24.70;;;10.40;;
61435;SDS011;47304;47.456;19.160;2022-11-20T07:06:02;20.30;;;7.80;;
61435;SDS011;47304;47.456;19.160;2022-11-20T07:08:31;23.30;;;10.10;;
61435;SDS011;47304;47.456;19.160;2022-11-20T07:11:00;22.70;;;10.20;;
61435;SDS011;47304;47.456;19.160;2022-11-20T07:13:29;21.40;;;9.90;;
61435;SDS011;47304;47.456;19.160;2022-11-20T07:16:01;18.70;;;8.50;;
61435;SDS011;47304;47.456;19.160;2022-11-20T07:18:30;20.10;;;9.60;;
61435;SDS011;47304;47.456;19.160;2022-11-20T07:21:02;22.80;;;10.10;;
61435;SDS011;47304;47.456;19.160;2022-11-20T07:23:31;17.90;;;8.20;;
61435;SDS011;47304;47.456;19.160;2022-11-20T07:26:02;19.30;;;9.60;;
61435;SDS011;47304;47.456;19.160;2022-11-20T07:28:34;21.90;;;10.10;;
61435;SDS011;47304;47.456;19.160;2022-11-20T07:31:02;21.60;;;8.80;;
61435;SDS011;47304;47.456;19.160;2022-11-20T07:33:30;24.30;;;10.40;;
61435;SDS011;47304;47.456;19.160;2022-11-20T07:35:58;22.30;;;10.50;;
61435;SDS011;47304;47.456;19.160;2022-11-20T07:38:27;20.70;;;9.00;;
61435;SDS011;47304;47.456;19.160;2022-11-20T07:40:57;21.90;;;9.60;;
61435;SDS011;47304;47.456;19.160;2022-11-20T07:43:25;29.50;;;12.40;;
61435;SDS011;47304;47.456;19.160;2022-11-20T07:45:59;24.40;;;10.60;;
61435;SDS011;47304;47.456;19.160;2022-11-20T07:48:26;23.20;;;10.70;;
61435;SDS011;47304;47.456;19.160;2022-11-20T07:50:55;21.50;;;9.10;;
61435;SDS011;47304;47.456;19.160;2022-11-20T07:53:23;25.60;;;11.90;;
61435;SDS011;47304;47.456;19.160;2022-11-20T07:55:51;20.90;;;8.40;;
61435;SDS011;47304;47.456;19.160;2022-11-20T07:58:20;22.50;;;11.00;;
61435;SDS011;47304;47.456;19.160;2022-11-20T08:00:48;21.00;;;10.70;;
61435;SDS011;47304;47.456;19.160;2022-11-20T08:03:16;23.50;;;11.40;;
61435;SDS011;47304;47.456;19.160;2022-11-20T08:05:50;22.50;;;10.40;;
61435;SDS011;47304;47.456;19.160;2022-11-20T08:08:21;17.70;;;9.00;;
61435;SDS011;47304;47.456;19.160;2022-11-20T08:10:49;21.70;;;9.90;;
61435;SDS011;47304;47.456;19.160;2022-11-20T08:13:16;23.10;;;10.60;;
61435;SDS011;47304;47.456;19.160;2022-11-20T08:15:47;26.70;;;12.40;;
61435;SDS011;47304;47.456;19.160;2022-11-20T08:18:17;22.90;;;10.30;;
61435;SDS011;47304;47.456;19.160;2022-11-20T08:21:03;26.40;;;11.90;;
61435;SDS011;47304;47.456;19.160;2022-11-20T08:23:31;25.50;;;11.90;;
61435;SDS011;47304;47.456;19.160;2022-11-20T08:25:59;25.50;;;11.80;;
61435;SDS011;47304;47.456;19.160;2022-11-20T08:28:26;26.50;;;12.10;;
61435;SDS011;47304;47.456;19.160;2022-11-20T08:30:58;26.50;;;12.70;;
61435;SDS011;47304;47.456;19.160;2022-11-20T08:33:27;23.30;;;10.70;;
61435;SDS011;47304;47.456;19.160;2022-11-20T08:36:02;23.40;;;11.00;;
61435;SDS011;47304;47.456;19.160;2022-11-20T08:38:31;29.80;;;13.10;;
61435;SDS011;47304;47.456;19.160;2022-11-20T08:41:00;29.60;;;13.60;;
61435;SDS011;47304;47.456;19.160;2022-11-20T08:43:28;27.10;;;12.90;;
61435;SDS011;47304;47.456;19.160;2022-11-20T08:45:56;21.90;;;9.90;;
61435;SDS011;47304;47.456;19.160;2022-11-20T08:48:24;25.90;;;11.80;;
61435;SDS011;47304;47.456;19.160;2022-11-20T08:50:52;25.70;;;12.00;;
61435;SDS011;47304;47.456;19.160;2022-11-20T08:53:19;25.30;;;11.90;;
61435;SDS011;47304;47.456;19.160;2022-11-20T08:55:47;29.40;;;14.50;;
61435;SDS011;47304;47.456;19.160;2022-11-20T08:58:15;30.60;;;13.70;;
61435;SDS011;47304;47.456;19.160;2022-11-20T09:00:42;26.60;;;11.80;;
61435;SDS011;47304;47.456;19.160;2022-11-20T09:03:10;21.80;;;9.80;;
61435;SDS011;47304;47.456;19.160;2022-11-20T09:05:37;18.40;;;9.10;;
61435;SDS011;47304;47.456;19.160;2022-11-20T09:08:05;21.80;;;10.00;;
61435;SDS011;47304;47.456;19.160;2022-11-20T09:10:33;26.50;;;12.20;;
61435;SDS011;47304;47.456;19.160;2022-11-20T09:13:00;23.80;;;11.00;;
61435;SDS011;47304;47.456;19.160;2022-11-20T09:15:28;21.80;;;11.10;;
61435;SDS011;47304;47.456;19.160;2022-11-20T09:17:58;25.00;;;13.00;;
61435;SDS011;47304;47.456;19.160;2022-11-20T09:20:27;24.00;;;10.60;;
61435;SDS011;47304;47.456;19.160;2022-11-20T09:22:56;23.50;;;11.00;;
61435;SDS011;47304;47.456;19.160;2022-11-20T09:25:24;22.10;;;10.10;;
61435;SDS011;47304;47.456;19.160;2022-11-20T09:27:56;24.40;;;10.60;;
61435;SDS011;47304;47.456;19.160;2022-11-20T09:32:52;24.40;;;10.00;;
61435;SDS011;47304;47.456;19.160;2022-11-20T09:35:20;21.90;;;10.60;;
61435;SDS011;47304;47.456;19.160;2022-11-20T09:37:48;26.80;;;10.40;;
61435;SDS011;47304;47.456;19.160;2022-11-20T09:40:22;24.00;;;10.70;;
61435;SDS011;47304;47.456;19.160;2022-11-20T09:43:03;23.00;;;10.90;;
61435;SDS011;47304;47.456;19.160;2022-11-20T09:46:17;26.20;;;11.30;;
61435;SDS011;47304;47.456;19.160;2022-11-20T09:56:49;19.10;;;8.10;;
61435;SDS011;47304;47.456;19.160;2022-11-20T10:07:30;22.70;;;10.30;;
61435;SDS011;47304;47.456;19.160;2022-11-20T10:10:13;20.80;;;9.70;;
61435;SDS011;47304;47.456;19.160;2022-11-20T10:15:38;24.40;;;11.90;;
61435;SDS011;47304;47.456;19.160;2022-11-20T10:30:01;23.40;;;11.20;;
61435;SDS011;47304;47.456;19.160;2022-11-20T10:32:39;27.80;;;13.60;;
61435;SDS011;47304;47.456;19.160;2022-11-20T10:37:55;26.50;;;13.30;;
61435;SDS011;47304;47.456;19.160;2022-11-20T10:43:18;24.80;;;11.10;;
61435;SDS011;47304;47.456;19.160;2022-11-20T10:45:53;23.00;;;12.50;;
61435;SDS011;47304;47.456;19.160;2022-11-20T10:48:27;27.10;;;13.10;;
61435;SDS011;47304;47.456;19.160;2022-11-20T10:51:08;25.50;;;12.90;;
61435;SDS011;47304;47.456;19.160;2022-11-20T10:54:01;26.00;;;13.80;;
61435;SDS011;47304;47.456;19.160;2022-11-20T10:56:35;23.60;;;13.50;;
61435;SDS011;47304;47.456;19.160;2022-11-20T11:02:16;25.00;;;13.30;;
61435;SDS011;47304;47.456;19.160;2022-11-20T11:04:52;23.60;;;11.70;;
61435;SDS011;47304;47.456;19.160;2022-11-20T11:07:22;22.20;;;12.70;;
61435;SDS011;47304;47.456;19.160;2022-11-20T11:10:19;23.60;;;13.30;;
61435;SDS011;47304;47.456;19.160;2022-11-20T11:12:52;23.90;;;11.60;;
61435;SDS011;47304;47.456;19.160;2022-11-20T11:15:28;25.40;;;13.40;;
61435;SDS011;47304;47.456;19.160;2022-11-20T11:17:58;24.30;;;12.20;;
61435;SDS011;47304;47.456;19.160;2022-11-20T11:20:26;26.90;;;12.90;;
61435;SDS011;47304;47.456;19.160;2022-11-20T11:22:55;23.40;;;12.00;;
61435;SDS011;47304;47.456;19.160;2022-11-20T11:28:04;23.70;;;12.20;;
61435;SDS011;47304;47.456;19.160;2022-11-20T11:30:46;21.10;;;10.90;;
61435;SDS011;47304;47.456;19.160;2022-11-20T11:33:33;24.60;;;11.90;;
61435;SDS011;47304;47.456;19.160;2022-11-20T11:36:03;24.30;;;12.40;;
61435;SDS011;47304;47.456;19.160;2022-11-20T11:38:39;25.70;;;12.90;;
61435;SDS011;47304;47.456;19.160;2022-11-20T11:41:12;24.00;;;12.40;;
61435;SDS011;47304;47.456;19.160;2022-11-20T11:43:55;24.30;;;12.70;;
61435;SDS011;47304;47.456;19.160;2022-11-20T11:46:31;21.70;;;11.00;;
61435;SDS011;47304;47.456;19.160;2022-11-20T11:49:01;24.10;;;10.80;;
61435;SDS011;47304;47.456;19.160;2022-11-20T11:51:59;27.40;;;12.60;;
61435;SDS011;47304;47.456;19.160;2022-11-20T11:57:00;25.80;;;14.10;;
61435;SDS011;47304;47.456;19.160;2022-11-20T11:59:54;30.10;;;16.50;;
61435;SDS011;47304;47.456;19.160;2022-11-20T12:02:29;29.50;;;14.70;;
61435;SDS011;47304;47.456;19.160;2022-11-20T12:05:20;25.30;;;12.70;;
61435;SDS011;47304;47.456;19.160;2022-11-20T12:11:03;23.70;;;12.10;;
61435;SDS011;47304;47.456;19.160;2022-11-20T12:16:01;19.00;;;8.70;;
61435;SDS011;47304;47.456;19.160;2022-11-20T12:18:30;18.40;;;8.80;;
61435;SDS011;47304;47.456;19.160;2022-11-20T12:37:23;20.70;;;10.40;;
61435;SDS011;47304;47.456;19.160;2022-11-20T12:40:52;22.30;;;11.20;;
61435;SDS011;47304;47.456;19.160;2022-11-20T12:43:11;23.90;;;12.00;;
61435;SDS011;47304;47.456;19.160;2022-11-20T12:45:51;25.30;;;12.30;;
61435;SDS011;47304;47.456;19.160;2022-11-20T12:53:58;24.20;;;12.30;;
61435;SDS011;47304;47.456;19.160;2022-11-20T12:59:39;23.40;;;11.10;;
61435;SDS011;47304;47.456;19.160;2022-11-20T13:02:23;28.20;;;12.60;;
61435;SDS011;47304;47.456;19.160;2022-11-20T13:07:52;23.80;;;11.20;;
61435;SDS011;47304;47.456;19.160;2022-11-20T13:12:55;23.30;;;11.50;;
61435;SDS011;47304;47.456;19.160;2022-11-20T13:15:36;25.40;;;11.80;;
61435;SDS011;47304;47.456;19.160;2022-11-20T13:18:23;25.10;;;11.50;;
61435;SDS011;47304;47.456;19.160;2022-11-20T13:20:52;24.80;;;11.50;;
61435;SDS011;47304;47.456;19.160;2022-11-20T13:23:23;25.80;;;11.80;;
61435;SDS011;47304;47.456;19.160;2022-11-20T13:29:03;24.00;;;11.20;;
61435;SDS011;47304;47.456;19.160;2022-11-20T13:31:39;22.30;;;10.90;;
61435;SDS011;47304;47.456;19.160;2022-11-20T13:34:14;27.90;;;13.50;;
61435;SDS011;47304;47.456;19.160;2022-11-20T13:36:53;25.50;;;12.60;;
61435;SDS011;47304;47.456;19.160;2022-11-20T13:39:24;25.80;;;12.80;;
61435;SDS011;47304;47.456;19.160;2022-11-20T13:44:54;26.50;;;12.10;;
61435;SDS011;47304;47.456;19.160;2022-11-20T13:47:28;17.00;;;7.50;;
61435;SDS011;47304;47.456;19.160;2022-11-20T13:49:57;26.20;;;13.20;;
61435;SDS011;47304;47.456;19.160;2022-11-20T14:00:48;24.50;;;11.50;;
61435;SDS011;47304;47.456;19.160;2022-11-20T14:03:22;23.60;;;11.90;;
61435;SDS011;47304;47.456;19.160;2022-11-20T14:06:18;23.30;;;12.10;;
61435;SDS011;47304;47.456;19.160;2022-11-20T14:08:53;22.80;;;9.20;;
61435;SDS011;47304;47.456;19.160;2022-11-20T14:11:23;24.40;;;11.80;;
61435;SDS011;47304;47.456;19.160;2022-11-20T14:16:40;21.20;;;10.40;;
61435;SDS011;47304;47.456;19.160;2022-11-20T14:21:48;22.90;;;11.80;;
61435;SDS011;47304;47.456;19.160;2022-11-20T14:24:23;25.60;;;12.70;;
61435;SDS011;47304;47.456;19.160;2022-11-20T14:26:52;23.10;;;11.70;;
61435;SDS011;47304;47.456;19.160;2022-11-20T14:29:29;23.50;;;12.00;;
61435;SDS011;47304;47.456;19.160;2022-11-20T14:32:02;25.70;;;11.80;;
61435;SDS011;47304;47.456;19.160;2022-11-20T14:34:32;21.80;;;10.00;;
61435;SDS011;47304;47.456;19.160;2022-11-20T14:37:05;23.50;;;11.20;;
61435;SDS011;47304;47.456;19.160;2022-11-20T14:39:47;24.00;;;11.20;;
61435;SDS011;47304;47.456;19.160;2022-11-20T14:42:19;23.20;;;10.60;;
61435;SDS011;47304;47.456;19.160;2022-11-20T14:47:21;23.30;;;10.80;;
61435;SDS011;47304;47.456;19.160;2022-11-20T14:49:52;27.40;;;11.60;;
61435;SDS011;47304;47.456;19.160;2022-11-20T14:52:23;24.60;;;10.70;;
61435;SDS011;47304;47.456;19.160;2022-11-20T14:57:31;25.40;;;12.00;;
61435;SDS011;47304;47.456;19.160;2022-11-20T15:02:44;26.30;;;12.00;;
61435;SDS011;47304;47.456;19.160;2022-11-20T15:05:15;24.90;;;12.00;;
61435;SDS011;47304;47.456;19.160;2022-11-20T15:07:49;24.10;;;11.00;;
61435;SDS011;47304;47.456;19.160;2022-11-20T15:10:24;29.70;;;14.50;;
61435;SDS011;47304;47.456;19.160;2022-11-20T15:15:31;25.80;;;13.10;;
61435;SDS011;47304;47.456;19.160;2022-11-20T15:18:02;29.30;;;13.80;;
61435;SDS011;47304;47.456;19.160;2022-11-20T15:20:31;27.40;;;13.40;;
61435;SDS011;47304;47.456;19.160;2022-11-20T15:23:00;26.20;;;12.70;;
61435;SDS011;47304;47.456;19.160;2022-11-20T15:25:28;25.30;;;12.60;;
61435;SDS011;47304;47.456;19.160;2022-11-20T15:27:56;28.00;;;12.70;;
61435;SDS011;47304;47.456;19.160;2022-11-20T15:30:24;28.10;;;12.20;;
61435;SDS011;47304;47.456;19.160;2022-11-20T15:32:54;27.70;;;13.30;;
61435;SDS011;47304;47.456;19.160;2022-11-20T15:35:22;24.80;;;11.70;;
61435;SDS011;47304;47.456;19.160;2022-11-20T15:37:49;25.30;;;12.70;;
61435;SDS011;47304;47.456;19.160;2022-11-20T15:40:17;28.10;;;12.80;;
61435;SDS011;47304;47.456;19.160;2022-11-20T15:42:45;25.90;;;12.70;;
61435;SDS011;47304;47.456;19.160;2022-11-20T15:45:12;26.30;;;11.60;;
61435;SDS011;47304;47.456;19.160;2022-11-20T15:47:40;24.80;;;11.70;;
61435;SDS011;47304;47.456;19.160;2022-11-20T15:50:09;27.40;;;11.50;;
61435;SDS011;47304;47.456;19.160;2022-11-20T15:52:44;24.00;;;10.90;;
61435;SDS011;47304;47.456;19.160;2022-11-20T15:55:11;23.90;;;11.70;;
61435;SDS011;47304;47.456;19.160;2022-11-20T15:57:40;27.20;;;12.80;;
61435;SDS011;47304;47.456;19.160;2022-11-20T16:00:07;32.50;;;15.10;;
61435;SDS011;47304;47.456;19.160;2022-11-20T16:02:35;24.70;;;12.50;;
61435;SDS011;47304;47.456;19.160;2022-11-20T16:05:09;28.80;;;13.30;;
61435;SDS011;47304;47.456;19.160;2022-11-20T16:07:38;26.00;;;13.80;;
61435;SDS011;47304;47.456;19.160;2022-11-20T16:10:06;32.00;;;13.60;;
61435;SDS011;47304;47.456;19.160;2022-11-20T16:12:35;31.10;;;13.50;;
61435;SDS011;47304;47.456;19.160;2022-11-20T16:15:02;32.10;;;14.30;;
61435;SDS011;47304;47.456;19.160;2022-11-20T16:17:34;28.00;;;13.20;;
61435;SDS011;47304;47.456;19.160;2022-11-20T16:20:02;27.70;;;13.40;;
61435;SDS011;47304;47.456;19.160;2022-11-20T16:22:29;30.00;;;15.20;;
61435;SDS011;47304;47.456;19.160;2022-11-20T16:24:57;33.40;;;14.60;;
61435;SDS011;47304;47.456;19.160;2022-11-20T16:27:25;33.40;;;17.00;;
61435;SDS011;47304;47.456;19.160;2022-11-20T16:29:52;38.50;;;18.40;;
61435;SDS011;47304;47.456;19.160;2022-11-20T16:32:20;61.60;;;28.30;;
61435;SDS011;47304;47.456;19.160;2022-11-20T16:34:49;41.70;;;20.90;;